Time;durP1;ratioP1;P1;durP2;ratioP2;P2;SDS_P1;SDS_P2;PMS_P1;PMS_P2;Temp;Humidity;BMP_temperature;BMP_pressure;BME280_temperature;BME280_humidity;BME280_pressure;Samples;Min_cycle;Max_cycle;Signal;HPM_P1;HPM_P2
2022/01/13 00:02:12;;;;;;;77.88;37.80;;;0.90;2201.60;;;;;;5049563;28;20117;-60
2022/01/13 00:04:38;;;;;;;74.30;39.40;;;0.80;2201.60;;;;;;5049685;28;20359;-61
2022/01/13 00:07:04;;;;;;;82.13;43.17;;;0.80;2201.60;;;;;;5049509;28;20486;-61
2022/01/13 00:09:30;;;;;;;96.47;55.42;;;0.50;2201.60;;;;;;5049672;28;20067;-61
2022/01/13 00:11:57;;;;;;;71.68;37.33;;;0.40;2201.60;;;;;;5049797;28;20532;-60
2022/01/13 00:14:37;;;;;;;129.02;74.57;;;0.60;2201.60;;;;;;5049423;28;20024;-61
2022/01/13 00:19:57;;;;;;;115.47;61.55;;;0.30;2201.60;;;;;;5049417;28;20029;-60
2022/01/13 00:22:46;;;;;;;94.60;47.10;;;0.50;2201.60;;;;;;5049348;28;20537;-60
2022/01/13 00:25:14;;;;;;;76.22;39.85;;;0.20;2201.60;;;;;;5049360;28;20047;-60
2022/01/13 00:27:46;;;;;;;66.63;34.88;;;0.40;2201.60;;;;;;5049240;28;20118;-61
2022/01/13 00:30:16;;;;;;;68.63;30.50;;;0.40;2201.60;;;;;;5048633;28;20028;-61
2022/01/13 00:32:43;;;;;;;74.40;37.30;;;0.40;2201.60;;;;;;5048946;28;20537;-61
2022/01/13 00:35:09;;;;;;;91.47;52.90;;;0.10;2201.60;;;;;;5049252;28;20021;-61
2022/01/13 00:37:36;;;;;;;98.20;54.08;;;0.20;2201.60;;;;;;5049269;28;20040;-60
2022/01/13 00:40:02;;;;;;;55.63;28.38;;;0.20;2201.60;;;;;;5049125;28;20041;-60
2022/01/13 00:42:28;;;;;;;44.20;22.80;;;0.30;2201.60;;;;;;5049331;28;20083;-61
2022/01/13 00:44:54;;;;;;;76.05;39.80;;;0.30;2201.60;;;;;;5048667;28;20503;-60
2022/01/13 00:47:20;;;;;;;159.73;89.95;;;0.10;2201.60;;;;;;5049103;28;20025;-61
2022/01/13 00:49:46;;;;;;;59.03;29.95;;;0.20;2201.60;;;;;;5034162;28;20431;-60
2022/01/13 00:52:12;;;;;;;101.90;51.25;;;0.30;2201.60;;;;;;5030502;28;20025;-61
2022/01/13 00:54:39;;;;;;;132.38;75.97;;;0.00;2201.60;;;;;;5030703;28;20048;-61
2022/01/13 00:57:04;;;;;;;61.05;35.55;;;0.20;2201.60;;;;;;5036305;28;20040;-59
2022/01/13 00:59:30;;;;;;;54.50;27.35;;;0.20;2201.60;;;;;;5040251;28;20033;-61
2022/01/13 01:01:56;;;;;;;50.47;25.55;;;0.50;2201.60;;;;;;5040395;28;20021;-60
2022/01/13 01:04:23;;;;;;;51.53;28.38;;;0.60;2201.60;;;;;;5038502;28;20049;-60
2022/01/13 01:06:49;;;;;;;77.20;38.55;;;0.60;2201.60;;;;;;5039922;28;20037;-61
2022/01/13 01:09:29;;;;;;;74.80;41.35;;;0.40;2201.60;;;;;;5038435;28;20043;-60
2022/01/13 01:11:56;;;;;;;123.18;72.45;;;0.30;2201.60;;;;;;5040291;28;20094;-60
2022/01/13 01:14:23;;;;;;;189.75;109.65;;;0.10;2201.60;;;;;;5038470;28;20433;-60
2022/01/13 01:16:49;;;;;;;159.85;86.40;;;0.30;2201.60;;;;;;5040347;28;20025;-60
2022/01/13 01:19:15;;;;;;;210.20;119.68;;;0.20;2201.60;;;;;;5039750;28;20048;-59
2022/01/13 01:24:57;;;;;;;350.30;192.77;;;0.40;2201.60;;;;;;5040519;28;20029;-59
2022/01/13 01:27:15;;;;;;;60.72;33.13;;;0.40;2201.60;;;;;;5037455;28;20146;-60
2022/01/13 01:29:50;;;;;;;159.30;79.78;;;0.20;2201.60;;;;;;5040289;28;20044;-59
2022/01/13 01:32:16;;;;;;;117.55;63.50;;;0.20;2201.60;;;;;;5039880;28;20460;-60
2022/01/13 01:35:01;;;;;;;102.53;59.33;;;0.20;2201.60;;;;;;5038274;28;20026;-60
2022/01/13 01:37:29;;;;;;;44.13;22.92;;;0.40;2201.60;;;;;;5038691;28;20037;-60
2022/01/13 01:39:57;;;;;;;139.88;81.57;;;0.50;2201.60;;;;;;5039100;28;20031;-61
2022/01/13 01:42:24;;;;;;;108.10;64.50;;;0.40;2201.60;;;;;;5042737;28;20021;-60
2022/01/13 01:44:54;;;;;;;153.80;82.40;;;0.30;2201.60;;;;;;5043362;28;20155;-61
2022/01/13 01:47:22;;;;;;;94.68;50.53;;;0.20;2201.60;;;;;;5042348;28;20025;-61
2022/01/13 01:49:52;;;;;;;58.30;31.45;;;0.00;2201.60;;;;;;5042875;28;20038;-61
2022/01/13 01:52:20;;;;;;;58.83;30.73;;;0.30;2201.60;;;;;;5042651;28;20500;-60
2022/01/13 01:54:47;;;;;;;191.07;95.75;;;0.20;2201.60;;;;;;5042443;28;20533;-60
2022/01/13 01:57:14;;;;;;;269.27;153.68;;;0.20;2201.60;;;;;;5043008;28;20070;-61
2022/01/13 01:59:42;;;;;;;150.00;81.68;;;0.40;2201.60;;;;;;5044209;28;20030;-62
2022/01/13 02:02:10;;;;;;;67.85;36.20;;;0.40;2201.60;;;;;;5042413;28;20021;-61
2022/01/13 02:04:36;;;;;;;65.32;34.00;;;0.50;2201.60;;;;;;5042916;28;20491;-60
2022/01/13 02:07:05;;;;;;;51.28;27.80;;;0.40;2201.60;;;;;;5043800;28;20067;-60
2022/01/13 02:09:34;;;;;;;50.70;26.80;;;0.50;2201.60;;;;;;5042565;28;20040;-61
2022/01/13 02:12:04;;;;;;;66.57;36.78;;;0.30;2201.60;;;;;;5041851;28;20025;-61
2022/01/13 02:15:28;;;;;;;118.78;63.58;;;0.40;2201.60;;;;;;5041335;28;20116;-60
2022/01/13 02:17:26;;;;;;;36.10;20.33;;;0.40;2201.60;;;;;;5033154;28;20072;-61
2022/01/13 02:19:54;;;;;;;34.72;21.23;;;0.40;2201.60;;;;;;5033382;28;20041;-61
2022/01/13 02:22:22;;;;;;;47.05;25.65;;;0.40;2201.60;;;;;;5033232;28;20385;-61
2022/01/13 02:24:47;;;;;;;84.97;44.00;;;0.40;2201.60;;;;;;5033677;28;20032;-60
2022/01/13 02:27:13;;;;;;;77.93;39.88;;;0.50;2201.60;;;;;;5033234;28;20025;-60
2022/01/13 02:29:39;;;;;;;100.45;52.45;;;0.50;2201.60;;;;;;5033444;28;20029;-61
2022/01/13 02:32:05;;;;;;;195.07;98.88;;;0.60;2201.60;;;;;;5033277;28;20036;-61
2022/01/13 02:34:31;;;;;;;120.53;60.30;;;0.50;2201.60;;;;;;5032890;28;20032;-60
2022/01/13 02:36:58;;;;;;;68.10;35.20;;;0.50;2201.60;;;;;;5033121;28;20022;-60
2022/01/13 02:39:29;;;;;;;117.00;58.33;;;0.30;2201.60;;;;;;5033113;28;20026;-60
2022/01/13 02:41:56;;;;;;;89.72;43.25;;;0.50;2201.60;;;;;;5033418;28;20030;-61
2022/01/13 02:44:24;;;;;;;131.95;62.22;;;0.10;2201.60;;;;;;5032963;28;20028;-60
2022/01/13 02:49:21;;;;;;;44.40;23.48;;;0.50;2201.60;;;;;;5033102;28;20032;-60
2022/01/13 02:51:50;;;;;;;70.35;34.05;;;0.50;2201.60;;;;;;5032953;28;20018;-60
2022/01/13 02:54:16;;;;;;;46.70;25.13;;;0.40;2201.60;;;;;;5031755;28;20029;-60
2022/01/13 02:56:43;;;;;;;52.15;26.10;;;0.50;2201.60;;;;;;5032646;28;20026;-61
2022/01/13 02:59:10;;;;;;;57.78;29.17;;;0.50;2201.60;;;;;;5032807;28;20040;-60
2022/01/13 03:01:36;;;;;;;170.10;78.65;;;0.60;2201.60;;;;;;5032574;28;20045;-61
2022/01/13 03:04:06;;;;;;;73.00;33.85;;;0.70;2201.60;;;;;;5032359;28;20026;-61
2022/01/13 03:06:35;;;;;;;241.52;107.40;;;0.60;2201.60;;;;;;5032128;28;20078;-61
2022/01/13 03:09:04;;;;;;;145.65;81.03;;;0.70;2201.60;;;;;;5032443;28;20095;-61
2022/01/13 03:11:34;;;;;;;51.30;28.05;;;0.70;2201.60;;;;;;5032784;28;20451;-61
2022/01/13 03:13:59;;;;;;;36.35;20.13;;;0.80;2201.60;;;;;;5032660;28;20029;-61
2022/01/13 03:16:25;;;;;;;39.08;19.88;;;0.80;2201.60;;;;;;5032357;28;20032;-61
2022/01/13 03:18:51;;;;;;;38.17;19.98;;;0.80;2201.60;;;;;;5032425;28;20033;-61
2022/01/13 03:21:18;;;;;;;42.20;21.55;;;0.80;2201.60;;;;;;5032398;28;20034;-60
2022/01/13 03:23:44;;;;;;;44.80;22.92;;;0.50;2201.60;;;;;;5032189;28;20017;-61
2022/01/13 03:26:10;;;;;;;51.20;26.55;;;0.30;2201.60;;;;;;5032449;28;20105;-61
2022/01/13 03:28:50;;;;;;;40.13;21.40;;;0.30;2201.60;;;;;;5032489;28;20029;-60
2022/01/13 03:31:20;;;;;;;39.55;25.15;;;0.20;2201.60;;;;;;5032109;28;20530;-61
2022/01/13 03:33:47;;;;;;;42.60;24.13;;;0.30;2201.60;;;;;;5031933;28;20084;-61
2022/01/13 03:36:13;;;;;;;49.00;27.33;;;0.10;2201.60;;;;;;5031923;28;20025;-61
2022/01/13 03:38:39;;;;;;;57.50;31.50;;;0.10;2201.60;;;;;;5032212;28;20067;-61
2022/01/13 03:41:05;;;;;;;60.00;34.60;;;38.40;2201.60;;;;;;5031823;28;20060;-61
2022/01/13 03:43:32;;;;;;;69.13;37.05;;;13.10;2201.60;;;;;;5031773;28;20028;-61
2022/01/13 03:45:58;;;;;;;72.75;40.42;;;12.90;2201.60;;;;;;5031924;28;20070;-61
2022/01/13 03:48:24;;;;;;;36.92;22.38;;;0.00;2201.60;;;;;;5031910;28;20021;-61
2022/01/13 03:50:49;;;;;;;37.70;16.95;;;0.20;2201.60;;;;;;5031661;28;20025;-61
2022/01/13 03:53:27;;;;;;;41.85;21.35;;;0.20;2201.60;;;;;;5031943;28;20064;-61
2022/01/13 03:56:30;;;;;;;144.85;68.88;;;0.40;2201.60;;;;;;5031651;28;20017;-61
2022/01/13 03:59:37;;;;;;;138.70;59.83;;;0.40;2201.60;;;;;;5031527;28;20025;-61
2022/01/13 04:02:08;;;;;;;181.30;96.22;;;0.30;2201.60;;;;;;5031267;28;20029;-61
2022/01/13 04:04:38;;;;;;;64.13;38.05;;;0.40;2201.60;;;;;;5031000;28;20038;-60
2022/01/13 04:07:09;;;;;;;91.85;49.65;;;0.30;2201.60;;;;;;5031336;28;20092;-61
2022/01/13 04:09:34;;;;;;;140.90;68.80;;;0.20;2201.60;;;;;;5031464;28;20033;-61
2022/01/13 04:12:04;;;;;;;70.47;39.60;;;0.10;2201.60;;;;;;5031470;28;20537;-61
2022/01/13 04:14:38;;;;;;;43.92;25.92;;;0.30;2201.60;;;;;;5031186;28;20037;-61
2022/01/13 04:17:04;;;;;;;102.20;57.80;;;0.40;2201.60;;;;;;5031406;28;20025;-61
2022/01/13 04:19:30;;;;;;;119.85;67.78;;;0.40;2201.60;;;;;;5030956;28;20052;-61
2022/01/13 04:21:56;;;;;;;71.60;36.97;;;0.40;2201.60;;;;;;5031276;28;20467;-61
2022/01/13 04:24:22;;;;;;;60.90;38.60;;;0.40;2201.60;;;;;;5030994;28;20030;-61
2022/01/13 04:26:47;;;;;;;70.70;37.75;;;0.50;2201.60;;;;;;5031568;28;20041;-61
2022/01/13 04:31:45;;;;;;;70.88;38.95;;;0.30;2201.60;;;;;;5030772;28;20025;-60
2022/01/13 04:34:11;;;;;;;147.88;73.43;;;0.00;2201.60;;;;;;5030789;28;20038;-61
2022/01/13 04:36:37;;;;;;;81.75;42.67;;;13.00;2201.60;;;;;;5031015;28;20029;-59
2022/01/13 04:39:05;;;;;;;62.03;30.92;;;13.10;2201.60;;;;;;5030520;28;20034;-59
2022/01/13 04:41:35;;;;;;;39.63;20.02;;;13.00;2201.60;;;;;;5030924;28;20033;-59
2022/01/13 04:44:06;;;;;;;44.60;28.27;;;13.30;2201.60;;;;;;5030779;28;20029;-59
2022/01/13 04:46:32;;;;;;;63.55;33.35;;;13.10;2201.60;;;;;;5030690;28;20037;-59
2022/01/13 04:48:59;;;;;;;57.40;30.45;;;13.20;2201.60;;;;;;5030768;28;20383;-59
2022/01/13 04:51:26;;;;;;;144.93;65.50;;;13.10;2201.60;;;;;;5030712;28;20029;-58
2022/01/13 04:53:51;;;;;;;263.02;120.15;;;13.00;2201.60;;;;;;5030609;28;20033;-61
2022/01/13 04:56:28;;;;;;;89.03;45.60;;;13.00;2201.60;;;;;;5030550;28;20155;-58
2022/01/13 04:58:54;;;;;;;51.17;26.17;;;0.00;2201.60;;;;;;5030592;28;20365;-58
2022/01/13 05:01:20;;;;;;;53.63;27.10;;;13.00;2201.60;;;;;;5030342;28;20060;-59
2022/01/13 05:03:46;;;;;;;83.80;46.05;;;13.10;2201.60;;;;;;5030524;28;20041;-60
2022/01/13 05:06:13;;;;;;;190.00;99.38;;;13.20;2201.60;;;;;;5030123;28;20044;-60
2022/01/13 05:08:39;;;;;;;67.95;33.35;;;13.10;2201.60;;;;;;5030309;28;20077;-58
2022/01/13 05:11:05;;;;;;;58.55;35.20;;;13.10;2201.60;;;;;;5030638;28;20060;-56
2022/01/13 05:13:31;;;;;;;46.20;22.48;;;12.90;2201.60;;;;;;5030313;28;20503;-61
2022/01/13 05:15:57;;;;;;;44.30;24.42;;;12.90;2201.60;;;;;;5029751;28;20021;-58
2022/01/13 05:21:17;;;;;;;36.42;21.58;;;0.00;2201.60;;;;;;5030379;28;20373;-61
2022/01/13 05:23:43;;;;;;;44.22;24.27;;;0.10;2201.60;;;;;;5030275;28;20031;-60
2022/01/13 05:26:10;;;;;;;44.10;26.33;;;12.90;2201.60;;;;;;5030504;28;20618;-61
2022/01/13 05:28:36;;;;;;;44.08;24.00;;;13.00;2201.60;;;;;;5030185;28;20438;-61
2022/01/13 05:31:02;;;;;;;38.40;24.20;;;13.00;2201.60;;;;;;5029894;28;20037;-60
2022/01/13 05:33:28;;;;;;;40.05;24.38;;;13.00;2201.60;;;;;;5030195;28;20037;-60
2022/01/13 05:35:54;;;;;;;44.88;27.08;;;13.00;2201.60;;;;;;5030216;28;20037;-61
2022/01/13 05:38:19;;;;;;;55.58;33.42;;;13.00;2201.60;;;;;;5029908;28;20033;-59
2022/01/13 05:40:45;;;;;;;44.08;23.85;;;13.00;2201.60;;;;;;5030285;28;20130;-59
2022/01/13 05:43:11;;;;;;;34.78;22.83;;;13.10;2201.60;;;;;;5029994;28;20079;-59
2022/01/13 05:45:39;;;;;;;35.00;20.88;;;13.00;2201.60;;;;;;5030046;28;20033;-59
2022/01/13 05:48:05;;;;;;;40.20;22.67;;;13.00;2201.60;;;;;;5029937;28;20033;-60
2022/01/13 05:50:31;;;;;;;48.80;27.70;;;13.00;2201.60;;;;;;5029774;28;20028;-60
2022/01/13 05:52:57;;;;;;;52.75;27.80;;;13.00;2201.60;;;;;;5030004;28;20033;-60
2022/01/13 05:55:23;;;;;;;53.70;30.05;;;13.00;2201.60;;;;;;5029776;28;20026;-62
2022/01/13 05:57:49;;;;;;;52.75;28.60;;;12.90;2201.60;;;;;;5030040;28;20538;-61
2022/01/13 06:00:18;;;;;;;40.75;23.08;;;13.10;2201.60;;;;;;5029598;28;20049;-60
2022/01/13 06:02:46;;;;;;;38.92;21.77;;;13.00;2201.60;;;;;;5029631;28;20415;-60
2022/01/13 06:05:12;;;;;;;54.67;26.38;;;12.90;2201.60;;;;;;5029560;28;20029;-59
2022/01/13 06:07:38;;;;;;;43.25;25.33;;;13.00;2201.60;;;;;;5029649;28;20045;-60
2022/01/13 06:10:07;;;;;;;56.90;34.30;;;13.00;2201.60;;;;;;5033737;28;20174;-60
2022/01/13 06:12:36;;;;;;;46.47;23.67;;;13.00;2201.60;;;;;;5049483;28;20494;-60
2022/01/13 06:15:05;;;;;;;39.67;23.23;;;13.10;2201.60;;;;;;5049295;28;20123;-61
2022/01/13 06:17:32;;;;;;;43.80;26.38;;;13.00;2201.60;;;;;;5049287;28;20045;-60
2022/01/13 06:19:59;;;;;;;39.35;25.88;;;13.10;2201.60;;;;;;5049357;28;20043;-61
2022/01/13 06:22:25;;;;;;;49.47;29.00;;;13.10;2201.60;;;;;;5049937;28;20107;-61
2022/01/13 06:24:53;;;;;;;46.58;27.48;;;13.10;2201.60;;;;;;5049553;28;20072;-61
2022/01/13 06:27:21;;;;;;;48.85;25.77;;;13.10;2201.60;;;;;;5050200;28;20033;-62
2022/01/13 06:29:47;;;;;;;47.55;26.73;;;13.00;2201.60;;;;;;5053398;28;20099;-61
2022/01/13 06:32:13;;;;;;;69.57;39.55;;;13.00;2201.60;;;;;;5052948;28;20055;-61
2022/01/13 06:34:39;;;;;;;157.40;114.18;;;13.10;2201.60;;;;;;5053108;28;20530;-59
2022/01/13 06:37:04;;;;;;;80.07;46.10;;;13.20;2201.60;;;;;;5052448;28;20108;-59
2022/01/13 06:39:30;;;;;;;66.78;39.60;;;13.10;2201.60;;;;;;5032973;28;20036;-60
2022/01/13 06:41:56;;;;;;;48.55;27.45;;;13.00;2201.60;;;;;;5033167;28;20022;-60
2022/01/13 06:44:22;;;;;;;66.78;42.88;;;13.00;2201.60;;;;;;5033040;28;20029;-60
2022/01/13 06:46:47;;;;;;;49.85;29.95;;;13.00;2201.60;;;;;;5033059;28;20033;-60
2022/01/13 06:49:13;;;;;;;56.28;29.13;;;13.00;2201.60;;;;;;5032767;28;20467;-60
2022/01/13 06:51:39;;;;;;;55.88;31.17;;;0.00;2201.60;;;;;;5032947;28;20117;-60
2022/01/13 06:54:04;;;;;;;57.63;33.25;;;13.00;2201.60;;;;;;5032167;28;20068;-63
2022/01/13 06:56:30;;;;;;;65.32;36.65;;;12.90;2201.60;;;;;;5040560;28;20028;-65
2022/01/13 06:58:56;;;;;;;72.53;39.80;;;0.00;2201.60;;;;;;5039944;28;20682;-65
2022/01/13 07:01:23;;;;;;;58.15;34.30;;;0.40;2201.60;;;;;;5035009;28;20033;-64
2022/01/13 07:03:49;;;;;;;60.60;31.33;;;0.60;2201.60;;;;;;5046714;28;20468;-68
2022/01/13 07:06:15;;;;;;;55.53;31.08;;;0.70;2201.60;;;;;;5052525;28;20040;-63
2022/01/13 07:08:41;;;;;;;56.45;34.13;;;0.80;2201.60;;;;;;5052205;28;20522;-67
2022/01/13 07:11:07;;;;;;;69.15;41.50;;;0.90;2201.60;;;;;;5052483;28;20029;-64
2022/01/13 07:13:33;;;;;;;77.95;44.55;;;0.90;2201.60;;;;;;5052312;28;20032;-68
2022/01/13 07:16:01;;;;;;;68.97;45.00;;;25.60;2201.60;;;;;;5052462;28;20025;-64
2022/01/13 07:18:27;;;;;;;60.08;32.80;;;25.70;2201.60;;;;;;5052376;28;20056;-64
2022/01/13 07:20:54;;;;;;;68.47;37.63;;;25.80;2201.60;;;;;;5052300;28;20056;-64
2022/01/13 07:23:20;;;;;;;76.05;44.35;;;25.60;2201.60;;;;;;5052096;28;20040;-66
2022/01/13 07:25:46;;;;;;;72.00;44.03;;;25.70;2201.60;;;;;;5052569;28;20029;-64
2022/01/13 07:28:11;;;;;;;64.18;38.47;;;25.80;2201.60;;;;;;5052046;28;20459;-64
2022/01/13 07:30:37;;;;;;;65.90;39.40;;;26.20;2201.60;;;;;;5052141;28;20027;-64
2022/01/13 07:33:03;;;;;;;66.82;38.92;;;26.40;2201.60;;;;;;5052096;28;20033;-64
2022/01/13 07:35:29;;;;;;;50.72;31.00;;;51.20;2227.20;;;;;;5052120;28;20029;-65
2022/01/13 07:37:55;;;;;;;78.50;52.00;;;51.30;2227.20;;;;;;5052194;28;20036;-64
2022/01/13 07:40:21;;;;;;;62.83;39.15;;;51.40;2227.20;;;;;;5051139;28;20028;-66
2022/01/13 07:42:47;;;;;;;71.28;38.90;;;51.30;2227.20;;;;;;5052069;28;20028;-64
2022/01/13 07:45:15;;;;;;;67.50;37.58;;;51.40;2227.20;;;;;;5051800;28;20155;-64
2022/01/13 07:47:41;;;;;;;63.55;42.45;;;51.60;2227.20;;;;;;5052272;28;20049;-65
2022/01/13 07:50:10;;;;;;;73.78;44.17;;;51.50;2227.20;;;;;;5051739;28;20028;-64
2022/01/13 07:52:36;;;;;;;65.88;37.65;;;51.80;2227.20;;;;;;5051786;28;20056;-64
2022/01/13 07:55:02;;;;;;;60.38;35.40;;;51.90;2227.20;;;;;;5051688;28;20129;-64
2022/01/13 07:57:28;;;;;;;60.80;35.35;;;52.00;2227.20;;;;;;5051744;28;20487;-65
2022/01/13 07:59:54;;;;;;;66.22;34.63;;;52.10;2227.20;;;;;;5051486;28;20075;-64
2022/01/13 08:02:19;;;;;;;72.78;39.38;;;76.80;2227.20;;;;;;5051463;28;20120;-64
2022/01/13 08:04:45;;;;;;;92.25;51.63;;;76.80;2227.20;;;;;;5051396;28;20044;-64
2022/01/13 08:07:11;;;;;;;88.40;50.47;;;76.90;2227.20;;;;;;5051234;28;20178;-65
2022/01/13 08:09:37;;;;;;;77.72;42.63;;;77.00;2227.20;;;;;;5051444;28;20483;-64
2022/01/13 08:12:03;;;;;;;68.43;41.00;;;77.30;2227.20;;;;;;5051257;28;20368;-67
2022/01/13 08:14:29;;;;;;;88.90;48.78;;;77.40;2227.20;;;;;;5051387;28;20100;-64
2022/01/13 08:16:59;;;;;;;84.03;51.45;;;77.60;2227.20;;;;;;5051111;28;20103;-65
2022/01/13 08:22:09;;;;;;;65.43;36.30;;;102.80;2227.20;;;;;;5051222;28;20539;-65
2022/01/13 08:24:35;;;;;;;63.05;38.33;;;128.60;2099.20;;;;;;5051236;28;20047;-65
2022/01/13 08:27:01;;;;;;;65.47;38.30;;;154.30;1971.20;;;;;;5051013;28;20467;-65
2022/01/13 08:29:27;;;;;;;69.85;44.85;;;179.90;1868.80;;;;;;5051069;28;20028;-66
2022/01/13 08:31:52;;;;;;;92.82;60.17;;;179.90;1868.80;;;;;;5050760;28;20116;-65
2022/01/13 08:34:18;;;;;;;96.22;64.20;;;205.70;1792.00;;;;;;5051211;28;20059;-65
2022/01/13 08:36:45;;;;;;;83.22;56.47;;;230.60;1664.00;;;;;;5050705;28;20057;-66
2022/01/13 08:39:11;;;;;;;77.68;59.20;;;231.30;1612.80;;;;;;5050765;28;20028;-62
2022/01/13 08:41:37;;;;;;;80.65;57.00;;;256.70;1536.00;;;;;;5050743;28;20029;-66
2022/01/13 08:44:02;;;;;;;91.70;73.35;;;256.10;1536.00;;;;;;5050932;28;20028;-66
2022/01/13 08:46:28;;;;;;;87.60;54.35;;;230.60;1587.20;;;;;;5050812;28;20025;-65
2022/01/13 08:48:54;;;;;;;59.75;38.13;;;205.10;1612.80;;;;;;5050613;28;20059;-69
2022/01/13 08:51:20;;;;;;;52.25;33.92;;;179.80;1689.60;;;;;;5050587;28;20053;-65
2022/01/13 08:53:46;;;;;;;59.72;38.65;;;205.00;1638.40;;;;;;5050537;28;20158;-66
2022/01/13 08:56:14;;;;;;;62.03;45.58;;;230.80;1561.60;;;;;;5050489;28;20057;-66
2022/01/13 08:58:39;;;;;;;60.75;45.40;;;231.20;1459.20;;;;;;5050584;28;20029;-68
2022/01/13 09:01:07;;;;;;;89.38;59.55;;;231.10;1510.40;;;;;;5050211;28;20092;-66
2022/01/13 09:03:33;;;;;;;138.43;106.75;;;256.50;1433.60;;;;;;5050129;28;20033;-67
2022/01/13 09:05:59;;;;;;;119.07;93.38;;;282.00;1433.60;;;;;;5050394;28;20054;-65
2022/01/13 09:08:25;;;;;;;124.72;95.45;;;231.00;1484.80;;;;;;5050368;28;20073;-66
2022/01/13 09:10:51;;;;;;;100.85;72.75;;;205.50;1561.60;;;;;;5050212;28;20017;-66
2022/01/13 09:13:17;;;;;;;83.72;59.55;;;231.20;1510.40;;;;;;5050295;28;20090;-66
2022/01/13 09:15:49;;;;;;;66.05;44.30;;;281.70;1433.60;;;;;;5049833;28;20025;-65
2022/01/13 09:18:18;;;;;;;54.67;41.88;;;282.40;1382.40;;;;;;5049904;28;20064;-66
2022/01/13 09:20:46;;;;;;;48.55;36.70;;;307.20;1356.80;;;;;;5050022;28;20055;-69
2022/01/13 09:23:12;;;;;;;43.47;31.17;;;308.00;1331.20;;;;;;5050152;28;20497;-66
2022/01/13 09:25:38;;;;;;;35.38;24.90;;;332.90;1280.00;;;;;;5050142;28;20064;-65
2022/01/13 09:28:06;;;;;;;47.38;33.67;;;333.00;1254.40;;;;;;5050062;28;20028;-65
2022/01/13 09:30:33;;;;;;;48.28;33.65;;;333.10;1228.80;;;;;;5048727;28;20083;-64
2022/01/13 09:32:59;;;;;;;47.92;35.35;;;332.80;1254.40;;;;;;5050186;28;20108;-65
2022/01/13 09:35:24;;;;;;;42.40;32.25;;;332.90;1254.40;;;;;;5049972;28;20087;-64
2022/01/13 09:37:50;;;;;;;48.47;37.47;;;333.50;1254.40;;;;;;5040219;28;20542;-66
2022/01/13 09:40:16;;;;;;;34.35;26.23;;;333.20;1203.20;;;;;;5043841;28;20116;-66
2022/01/13 09:42:44;;;;;;;39.45;27.40;;;332.90;1228.80;;;;;;5039718;28;20025;-66
2022/01/13 09:45:11;;;;;;;41.08;28.77;;;307.20;1280.00;;;;;;5039493;28;20029;-65
2022/01/13 09:47:39;;;;;;;33.95;24.08;;;282.00;1280.00;;;;;;5049786;28;20459;-64
2022/01/13 09:50:10;;;;;;;32.50;22.02;;;256.20;1331.20;;;;;;5045883;28;20025;-64
2022/01/13 09:52:38;;;;;;;31.23;21.50;;;230.50;1408.00;;;;;;5041243;28;20494;-63
2022/01/13 09:55:05;;;;;;;36.53;24.52;;;205.20;1459.20;;;;;;5041304;28;20021;-64
2022/01/13 09:57:31;;;;;;;46.05;29.17;;;180.00;1510.40;;;;;;5049658;28;20078;-64
2022/01/13 09:59:58;;;;;;;33.03;20.42;;;154.10;1612.80;;;;;;5049805;28;20104;-64
2022/01/13 10:02:24;;;;;;;43.42;29.45;;;128.90;1638.40;;;;;;5050417;28;20033;-63
2022/01/13 10:04:56;;;;;;;44.90;28.42;;;128.80;1664.00;;;;;;5053681;28;20025;-64
2022/01/13 10:07:43;;;;;;;43.42;29.67;;;128.70;1689.60;;;;;;5053425;28;20047;-64
2022/01/13 10:10:15;;;;;;;63.45;38.42;;;128.40;1715.20;;;;;;5053671;28;20032;-63
2022/01/13 10:12:43;;;;;;;35.65;22.60;;;128.50;1715.20;;;;;;5053286;28;20025;-63
2022/01/13 10:18:07;;;;;;;37.55;25.83;;;128.40;1740.80;;;;;;5053361;28;20131;-64
2022/01/13 10:20:33;;;;;;;34.42;23.52;;;103.30;1715.20;;;;;;5053086;28;20045;-68
2022/01/13 10:23:08;;;;;;;39.67;28.80;;;103.30;1740.80;;;;;;5053619;28;20025;-64
2022/01/13 10:25:37;;;;;;;42.72;22.33;;;103.30;1766.40;;;;;;5053283;28;20030;-64
2022/01/13 10:28:17;;;;;;;47.58;31.70;;;103.30;1766.40;;;;;;5053389;28;20036;-68
2022/01/13 10:30:45;;;;;;;29.48;17.83;;;103.10;1792.00;;;;;;5053037;28;20115;-64
2022/01/13 10:33:29;;;;;;;35.83;22.27;;;103.20;1792.00;;;;;;5053221;28;20061;-64
2022/01/13 10:36:07;;;;;;;51.42;33.92;;;103.20;1792.00;;;;;;5052961;28;20029;-64
2022/01/13 10:38:56;;;;;;;59.33;39.13;;;103.00;1792.00;;;;;;5052923;28;20068;-68
2022/01/13 10:41:36;;;;;;;48.70;27.77;;;103.10;1817.60;;;;;;5053062;28;20041;-68
2022/01/13 10:44:13;;;;;;;51.33;33.25;;;103.20;1792.00;;;;;;5052841;28;20025;-64
2022/01/13 10:46:59;;;;;;;35.25;19.27;;;103.20;1817.60;;;;;;5053151;28;20033;-66
2022/01/13 10:49:37;;;;;;;30.77;19.52;;;102.80;1817.60;;;;;;5053022;28;20112;-64
2022/01/13 10:52:23;;;;;;;33.58;20.85;;;102.90;1868.80;;;;;;5052795;28;20096;-68
2022/01/13 10:54:58;;;;;;;31.40;18.60;;;103.00;1817.60;;;;;;5052800;28;20056;-63
2022/01/13 10:57:26;;;;;;;70.70;42.30;;;102.80;1817.60;;;;;;5052641;28;20025;-64
2022/01/13 10:59:52;;;;;;;88.97;46.38;;;103.00;1817.60;;;;;;5052665;28;20033;-64
2022/01/13 11:02:24;;;;;;;57.88;35.03;;;103.00;1843.20;;;;;;5052546;28;20032;-64
2022/01/13 11:04:50;;;;;;;60.37;30.53;;;103.20;1817.60;;;;;;5052382;28;20391;-65
2022/01/13 11:07:19;;;;;;;64.95;34.25;;;103.20;1843.20;;;;;;5052520;28;20278;-64
2022/01/13 11:09:52;;;;;;;58.60;35.40;;;103.30;1817.60;;;;;;5052471;28;20119;-65
2022/01/13 11:12:32;;;;;;;63.25;35.80;;;102.80;1843.20;;;;;;5052656;28;20039;-68
2022/01/13 11:15:06;;;;;;;61.08;43.65;;;102.90;1868.80;;;;;;5051159;28;20471;-64
2022/01/13 11:17:38;;;;;;;;;;;102.80;1817.60;;;;;;5052669;28;20017;-64
2022/01/13 11:20:09;;;;;;;45.47;31.50;;;102.80;1868.80;;;;;;5052097;28;19920;-62
2022/01/13 11:22:37;;;;;;;42.92;25.58;;;102.50;1868.80;;;;;;5049214;28;20497;-66
2022/01/13 11:25:09;;;;;;;50.55;27.70;;;102.50;1894.40;;;;;;5043988;28;20035;-64
2022/01/13 11:27:36;;;;;;;59.50;37.00;;;102.80;1868.80;;;;;;5052369;28;20162;-63
2022/01/13 11:30:06;;;;;;;45.83;28.33;;;103.10;1817.60;;;;;;5051878;28;20025;-65
2022/01/13 11:32:32;;;;;;;61.67;40.58;;;103.10;1843.20;;;;;;5052044;28;20021;-64
2022/01/13 11:34:58;;;;;;;49.78;27.95;;;103.10;1843.20;;;;;;5052202;28;20464;-65
2022/01/13 11:37:31;;;;;;;45.90;26.17;;;103.10;1868.80;;;;;;5052087;28;20059;-64
2022/01/13 11:39:57;;;;;;;42.20;27.65;;;103.20;1843.20;;;;;;5052157;28;20040;-64
2022/01/13 11:42:24;;;;;;;37.67;20.65;;;103.30;1817.60;;;;;;5051946;28;20467;-64
2022/01/13 11:45:15;;;;;;;44.28;23.98;;;128.00;1843.20;;;;;;5051584;28;20029;-64
2022/01/13 11:47:42;;;;;;;56.22;35.97;;;103.10;1817.60;;;;;;5051750;28;20028;-64
2022/01/13 11:50:19;;;;;;;36.63;19.40;;;103.10;1868.80;;;;;;5052038;28;20098;-64
2022/01/13 11:52:52;;;;;;;40.83;26.90;;;103.10;1843.20;;;;;;5051592;28;20052;-64
2022/01/13 11:55:23;;;;;;;41.70;24.58;;;103.00;1868.80;;;;;;5051774;28;20056;-63
2022/01/13 11:57:49;;;;;;;76.15;41.40;;;103.10;1843.20;;;;;;5051554;28;20483;-65
2022/01/13 12:00:26;;;;;;;64.60;39.65;;;103.00;1894.40;;;;;;5051434;28;20033;-63
2022/01/13 12:02:52;;;;;;;45.75;25.65;;;103.10;1868.80;;;;;;5051595;28;20033;-64
2022/01/13 12:05:23;;;;;;;52.25;32.75;;;103.10;1868.80;;;;;;5051458;28;20044;-64
2022/01/13 12:07:54;;;;;;;61.08;32.85;;;103.20;1868.80;;;;;;5051311;28;20077;-63
2022/01/13 12:10:20;;;;;;;52.50;32.72;;;103.20;1868.80;;;;;;5051131;28;20051;-65
2022/01/13 12:12:46;;;;;;;55.53;33.08;;;103.10;1843.20;;;;;;5051540;28;20103;-63
2022/01/13 12:15:19;;;;;;;51.33;28.90;;;102.50;1920.00;;;;;;5051153;28;20465;-64
2022/01/13 12:17:56;;;;;;;60.22;34.08;;;77.70;1945.60;;;;;;5051055;28;20222;-64
2022/01/13 12:20:56;;;;;;;59.65;31.33;;;102.40;1945.60;;;;;;5050931;28;20068;-64
2022/01/13 12:23:42;;;;;;;53.00;29.90;;;102.40;1945.60;;;;;;5051290;28;20037;-64
2022/01/13 12:26:33;;;;;;;49.83;29.75;;;102.50;1945.60;;;;;;5051035;28;20079;-64
2022/01/13 12:29:18;;;;;;;73.85;40.42;;;102.70;1945.60;;;;;;5051039;28;20033;-64
2022/01/13 12:31:52;;;;;;;78.13;45.92;;;102.70;1945.60;;;;;;5050747;28;20112;-68
2022/01/13 12:34:33;;;;;;;77.65;46.30;;;102.80;1945.60;;;;;;5051084;28;20418;-67
2022/01/13 12:37:14;;;;;;;69.75;44.05;;;102.80;1920.00;;;;;;5051033;28;20356;-69